Weather History for Allentown, PA

Change the Weather History Date:

Friday, April 26, 2013

  Actual Average (KABE) Record (KABE)
Temperature  
Mean Temperature 50 °F 54 °F  
Max Temperature 60 °F 65 °F 92 °F (1990)
Min Temperature 39 °F 42 °F 30 °F (1967)
Degree Days  
Heating Degree Days 16 12  
Month to date heating degree days 413  
Since 1 July heating degree days 5525  
Cooling Degree Days 0 0  
Month to date cooling degree days 0  
Year to date cooling degree days 0  
Moisture  
Dew Point 28 °F    
Average Humidity 46    
Maximum Humidity 75    
Minimum Humidity 20    
Precipitation  
Precipitation 0.00 in 0.12 in 2.08 in (1929)
Month to date precipitation 3.09  
Year to date precipitation 12.21  
Snow  
Snow 0.00 in 0.00 in 0.00 in ()
Month to date snowfall 1.0  
Since 1 July snowfall 32.9  
Snow Depth -    
Sea Level Pressure  
Sea Level Pressure 30.38 in    
Wind  
Wind Speed 3 mph (West)    
Max Wind Speed 12 mph    
Max Gust Speed 16 mph    
Visibility 10 miles    
Events      
T = Trace of Precipitation, MM = Missing Value Source: NWS Daily Summary

Daily Weather History Graph

Daily Weather History Graph

Search for Another Location

Airport:

Trip Planner

Search our weather history database for the weather conditions in past years. The results will help you decide how hot, cold, wet, or windy it might be!

Date:

Astronomy

Apr. 26, 2013 Rise Set
Actual Time 6:07 AM EDT 7:52 PM EDT
Civil Twilight 5:38 AM EDT 8:22 PM EDT
Nautical Twilight 5:02 AM EDT 8:57 PM EDT
Astronomical Twilight 4:24 AM EDT 9:35 PM EDT
Moon 9:13 PM EDT (4/26) 6:32 AM EDT (4/26)
Length of Visible Light 14h 44m
Length of Day
13h 45m
Full, 99% of the Moon is Illuminated
Apr 26
Full
May 2
Last Quarter
May 9
New
May 18
First Quarter
May 25
Full

Hourly Weather History & Observations

Time (EDT) Temp. Windchill Dew Point Humidity Pressure Visibility Wind Dir Wind Speed Gust Speed Precip Events Conditions
12:15 AM 44.6 °F 43.1 °F 32.0 °F 61% 30.29 in 10.0 mi SW 3.5 mph - N/A   Scattered Clouds
12:35 AM 42.8 °F - 32.0 °F 66% 30.29 in 10.0 mi Calm Calm - N/A   Scattered Clouds
12:55 AM 44.6 °F - 32.0 °F 61% 30.30 in 10.0 mi Calm Calm - N/A   Clear
1:15 AM 42.8 °F - 32.0 °F 66% 30.30 in 10.0 mi Calm Calm - N/A   Clear
1:35 AM 42.8 °F 40.1 °F 32.0 °F 66% 30.30 in 10.0 mi South 4.6 mph - N/A   Clear
1:55 AM 42.8 °F 40.1 °F 32.0 °F 66% 30.30 in 10.0 mi South 4.6 mph - N/A   Clear
2:15 AM 42.8 °F 41.1 °F 32.0 °F 66% 30.30 in 10.0 mi SSW 3.5 mph - N/A   Clear
2:35 AM 41.0 °F 39.0 °F 32.0 °F 70% 30.30 in 10.0 mi SSW 3.5 mph - N/A   Clear
2:55 AM 41.0 °F 39.0 °F 32.0 °F 70% 30.31 in 10.0 mi South 3.5 mph - N/A   Clear
3:15 AM 41.0 °F 37.1 °F 32.0 °F 70% 30.31 in 10.0 mi South 5.8 mph - N/A   Clear
3:35 AM 42.8 °F 40.1 °F 32.0 °F 66% 30.32 in 10.0 mi SW 4.6 mph - N/A   Clear
3:55 AM 41.0 °F 38.0 °F 32.0 °F 70% 30.33 in 10.0 mi South 4.6 mph - N/A   Clear
4:15 AM 41.0 °F 39.0 °F 30.2 °F 65% 30.34 in 10.0 mi South 3.5 mph - N/A   Clear
4:35 AM 41.0 °F - 32.0 °F 70% 30.35 in 10.0 mi Calm Calm - N/A   Clear
4:55 AM 41.0 °F 38.0 °F 32.0 °F 70% 30.35 in 10.0 mi South 4.6 mph - N/A   Clear
5:15 AM 41.0 °F 39.0 °F 32.0 °F 70% 30.36 in 10.0 mi SW 3.5 mph - N/A   Clear
5:35 AM 39.2 °F 37.0 °F 32.0 °F 75% 30.37 in 10.0 mi SSW 3.5 mph - N/A   Clear
5:55 AM 39.2 °F - 32.0 °F 75% 30.37 in 10.0 mi Calm Calm - N/A   Clear
6:15 AM 39.2 °F - 32.0 °F 75% 30.38 in 10.0 mi Calm Calm - N/A   Clear
6:35 AM 41.0 °F 39.0 °F 32.0 °F 70% 30.39 in 10.0 mi SSW 3.5 mph - N/A   Clear
6:55 AM 41.0 °F - 32.0 °F 70% 30.40 in 10.0 mi Calm Calm - N/A   Clear
7:15 AM 42.8 °F - 32.0 °F 66% 30.42 in 10.0 mi Calm Calm - N/A   Clear
7:35 AM 44.6 °F 42.2 °F 32.0 °F 61% 30.42 in 10.0 mi NNW 4.6 mph - N/A   Clear
7:55 AM 46.4 °F 42.4 °F 32.0 °F 57% 30.42 in 10.0 mi North 8.1 mph - N/A   Clear
8:15 AM 46.4 °F 41.1 °F 32.0 °F 57% 30.43 in 10.0 mi North 11.5 mph 16.1 mph N/A   Clear
8:35 AM 48.2 °F - 33.8 °F 58% 30.43 in 10.0 mi North 8.1 mph - N/A   Clear
8:55 AM 50.0 °F - 32.0 °F 50% 30.44 in 10.0 mi North 9.2 mph - N/A   Clear
9:15 AM 50.0 °F - 32.0 °F 50% 30.44 in 10.0 mi NNW 11.5 mph - N/A   Clear
9:35 AM 51.8 °F - 32.0 °F 47% 30.44 in 10.0 mi NNW 10.4 mph - N/A   Clear
9:55 AM 51.8 °F - 32.0 °F 47% 30.44 in 10.0 mi North 6.9 mph - N/A   Clear
10:15 AM 51.8 °F - 32.0 °F 47% 30.44 in 10.0 mi NW 8.1 mph - N/A   Clear
10:35 AM 51.8 °F - 32.0 °F 47% 30.44 in 10.0 mi WNW 4.6 mph - N/A   Clear
10:55 AM 53.6 °F - 32.0 °F 44% 30.44 in 10.0 mi North 6.9 mph - N/A   Clear
11:15 AM 53.6 °F - 28.4 °F 38% 30.44 in 10.0 mi Calm Calm - N/A   Clear
11:35 AM 55.4 °F - 30.2 °F 38% 30.43 in 10.0 mi West 4.6 mph - N/A   Clear
11:55 AM 55.4 °F - 28.4 °F 36% 30.43 in 10.0 mi WNW 5.8 mph - N/A   Clear
12:15 PM 55.4 °F - 26.6 °F 33% 30.42 in 10.0 mi West 3.5 mph - N/A   Clear
12:35 PM 55.4 °F - 26.6 °F 33% 30.42 in 10.0 mi Calm Calm - N/A   Clear
12:55 PM 55.4 °F - 26.6 °F 33% 30.41 in 10.0 mi NW 4.6 mph - N/A   Clear
1:15 PM 57.2 °F - 26.6 °F 31% 30.40 in 10.0 mi Calm Calm - N/A   Clear
1:35 PM 59.0 °F - 28.4 °F 31% 30.40 in 10.0 mi NNE 6.9 mph - N/A   Clear
1:55 PM 59.0 °F - 28.4 °F 31% 30.39 in 10.0 mi North 3.5 mph - N/A   Clear
2:15 PM 59.0 °F - 28.4 °F 31% 30.39 in 10.0 mi North 4.6 mph - N/A   Clear
2:55 PM 60.8 °F - 28.4 °F 29% 30.38 in 10.0 mi North 6.9 mph - N/A   Clear
3:15 PM 60.8 °F - 26.6 °F 27% 30.38 in 10.0 mi NNE 5.8 mph - N/A   Clear
3:35 PM 60.8 °F - 24.8 °F 25% 30.38 in 10.0 mi Calm Calm - N/A   Clear
3:55 PM 60.8 °F - 26.6 °F 27% 30.37 in 10.0 mi NNW 4.6 mph - N/A   Clear
4:15 PM 60.8 °F - 23.0 °F 23% 30.37 in 10.0 mi Calm Calm - N/A   Clear
4:35 PM 60.8 °F - 23.0 °F 23% 30.37 in 10.0 mi NNE 6.9 mph - N/A   Clear
4:55 PM 60.8 °F - 21.2 °F 22% 30.37 in 10.0 mi Calm Calm - N/A   Clear
5:15 PM 60.8 °F - 21.2 °F 22% 30.37 in 10.0 mi WNW 5.8 mph - N/A   Clear
5:35 PM 60.8 °F - 23.0 °F 23% 30.37 in 10.0 mi WSW 3.5 mph - N/A   Clear
5:55 PM 60.8 °F - 21.2 °F 22% 30.37 in 10.0 mi Calm Calm - N/A   Clear
6:15 PM 60.8 °F - 21.2 °F 22% 30.37 in 10.0 mi Calm Calm - N/A   Clear
6:35 PM 60.8 °F - 23.0 °F 23% 30.36 in 10.0 mi SW 4.6 mph - N/A   Clear
6:55 PM 60.8 °F - 19.4 °F 20% 30.37 in 10.0 mi West 3.5 mph - N/A   Clear
7:15 PM 59.0 °F - 21.2 °F 23% 30.36 in 10.0 mi Calm Calm - N/A   Clear
7:35 PM 59.0 °F - 21.2 °F 23% 30.37 in 10.0 mi Calm Calm - N/A   Clear
7:55 PM 59.0 °F - 21.2 °F 23% 30.38 in 10.0 mi Calm Calm - N/A   Clear
8:15 PM 55.4 °F - 23.0 °F 29% 30.39 in 10.0 mi SW 4.6 mph - N/A   Clear
8:35 PM 53.6 °F - 23.0 °F 30% 30.39 in 10.0 mi SW 4.6 mph - N/A   Clear
8:55 PM 53.6 °F - 23.0 °F 30% 30.40 in 10.0 mi Calm Calm - N/A   Clear
9:35 PM 53.6 °F - 23.0 °F 30% 30.40 in 10.0 mi Calm Calm - N/A   Clear
9:55 PM 51.8 °F - 23.0 °F 33% 30.41 in 10.0 mi Calm Calm - N/A   Clear
10:15 PM 51.8 °F - 23.0 °F 33% 30.42 in 10.0 mi SW 3.5 mph - N/A   Clear
10:35 PM 50.0 °F - 24.8 °F 37% 30.42 in 10.0 mi SW 3.5 mph - N/A   Clear
10:55 PM 50.0 °F - 26.6 °F 40% 30.41 in 10.0 mi South 3.5 mph - N/A   Clear
11:15 PM 46.4 °F - 30.2 °F 53% 30.42 in 10.0 mi Calm Calm - N/A   Clear
11:35 PM 46.4 °F - 30.2 °F 53% 30.42 in 10.0 mi Calm Calm - N/A   Clear
11:55 PM 44.6 °F - 30.2 °F 57% 30.43 in 10.0 mi Calm Calm - N/A   Clear